sensor_id;sensor_type;location;lat;lon;timestamp;P1;durP1;ratioP1;P2;durP2;ratioP2
45676;SDS011;31390;51.186;6.830;2023-02-28T00:00:25;6.93;;;5.73;;
45676;SDS011;31390;51.186;6.830;2023-02-28T00:02:52;8.53;;;5.93;;
45676;SDS011;31390;51.186;6.830;2023-02-28T00:05:19;8.00;;;5.83;;
45676;SDS011;31390;51.186;6.830;2023-02-28T00:07:46;8.50;;;6.43;;
45676;SDS011;31390;51.186;6.830;2023-02-28T00:10:14;8.67;;;5.53;;
45676;SDS011;31390;51.186;6.830;2023-02-28T00:12:45;6.90;;;5.63;;
45676;SDS011;31390;51.186;6.830;2023-02-28T00:15:11;8.73;;;5.90;;
45676;SDS011;31390;51.186;6.830;2023-02-28T00:17:38;6.17;;;5.57;;
45676;SDS011;31390;51.186;6.830;2023-02-28T00:20:05;8.50;;;5.90;;
45676;SDS011;31390;51.186;6.830;2023-02-28T00:22:36;10.87;;;6.57;;
45676;SDS011;31390;51.186;6.830;2023-02-28T00:25:03;7.33;;;6.00;;
45676;SDS011;31390;51.186;6.830;2023-02-28T00:27:30;13.27;;;6.53;;
45676;SDS011;31390;51.186;6.830;2023-02-28T00:29:57;8.90;;;6.20;;
45676;SDS011;31390;51.186;6.830;2023-02-28T00:32:23;10.07;;;6.33;;
45676;SDS011;31390;51.186;6.830;2023-02-28T00:34:49;9.60;;;6.10;;
45676;SDS011;31390;51.186;6.830;2023-02-28T00:37:16;10.43;;;6.73;;
45676;SDS011;31390;51.186;6.830;2023-02-28T00:39:42;11.07;;;6.20;;
45676;SDS011;31390;51.186;6.830;2023-02-28T00:42:09;9.37;;;6.23;;
45676;SDS011;31390;51.186;6.830;2023-02-28T00:44:36;7.77;;;6.43;;
45676;SDS011;31390;51.186;6.830;2023-02-28T00:47:03;7.07;;;5.80;;
45676;SDS011;31390;51.186;6.830;2023-02-28T00:49:29;6.63;;;5.90;;
45676;SDS011;31390;51.186;6.830;2023-02-28T00:51:56;7.33;;;6.07;;
45676;SDS011;31390;51.186;6.830;2023-02-28T00:54:24;6.57;;;5.80;;
45676;SDS011;31390;51.186;6.830;2023-02-28T00:56:51;6.33;;;5.67;;
45676;SDS011;31390;51.186;6.830;2023-02-28T00:59:17;7.90;;;5.83;;
45676;SDS011;31390;51.186;6.830;2023-02-28T01:01:45;7.43;;;5.67;;
45676;SDS011;31390;51.186;6.830;2023-02-28T01:04:12;6.60;;;5.70;;
45676;SDS011;31390;51.186;6.830;2023-02-28T01:06:39;6.33;;;5.73;;
45676;SDS011;31390;51.186;6.830;2023-02-28T01:09:09;6.73;;;6.10;;
45676;SDS011;31390;51.186;6.830;2023-02-28T01:11:35;7.47;;;6.03;;
45676;SDS011;31390;51.186;6.830;2023-02-28T01:14:02;6.97;;;6.27;;
45676;SDS011;31390;51.186;6.830;2023-02-28T01:16:30;7.03;;;6.33;;
45676;SDS011;31390;51.186;6.830;2023-02-28T01:18:56;10.83;;;6.47;;
45676;SDS011;31390;51.186;6.830;2023-02-28T01:21:23;9.60;;;6.80;;
45676;SDS011;31390;51.186;6.830;2023-02-28T01:23:49;9.00;;;6.70;;
45676;SDS011;31390;51.186;6.830;2023-02-28T01:26:18;10.50;;;7.20;;
45676;SDS011;31390;51.186;6.830;2023-02-28T01:28:44;9.30;;;6.23;;
45676;SDS011;31390;51.186;6.830;2023-02-28T01:31:11;12.13;;;6.70;;
45676;SDS011;31390;51.186;6.830;2023-02-28T01:33:38;6.67;;;5.80;;
45676;SDS011;31390;51.186;6.830;2023-02-28T01:36:06;9.40;;;6.27;;
45676;SDS011;31390;51.186;6.830;2023-02-28T01:38:34;10.13;;;7.00;;
45676;SDS011;31390;51.186;6.830;2023-02-28T01:41:01;9.17;;;6.53;;
45676;SDS011;31390;51.186;6.830;2023-02-28T01:43:28;11.30;;;6.70;;
45676;SDS011;31390;51.186;6.830;2023-02-28T01:45:55;9.20;;;6.47;;
45676;SDS011;31390;51.186;6.830;2023-02-28T01:48:34;10.90;;;6.90;;
45676;SDS011;31390;51.186;6.830;2023-02-28T01:51:03;9.17;;;5.77;;
45676;SDS011;31390;51.186;6.830;2023-02-28T01:53:32;6.13;;;5.53;;
45676;SDS011;31390;51.186;6.830;2023-02-28T01:56:00;7.83;;;6.50;;
45676;SDS011;31390;51.186;6.830;2023-02-28T01:58:26;10.50;;;7.13;;
45676;SDS011;31390;51.186;6.830;2023-02-28T02:00:53;11.63;;;6.80;;
45676;SDS011;31390;51.186;6.830;2023-02-28T02:03:19;10.70;;;7.10;;
45676;SDS011;31390;51.186;6.830;2023-02-28T02:05:46;9.40;;;7.70;;
45676;SDS011;31390;51.186;6.830;2023-02-28T02:08:21;7.67;;;6.60;;
45676;SDS011;31390;51.186;6.830;2023-02-28T02:10:56;9.10;;;6.97;;
45676;SDS011;31390;51.186;6.830;2023-02-28T02:16:50;10.00;;;7.70;;
45676;SDS011;31390;51.186;6.830;2023-02-28T02:29:40;12.67;;;8.50;;
45676;SDS011;31390;51.186;6.830;2023-02-28T02:37:04;10.60;;;8.47;;
45676;SDS011;31390;51.186;6.830;2023-02-28T02:39:40;12.50;;;7.77;;
45676;SDS011;31390;51.186;6.830;2023-02-28T02:42:29;10.33;;;7.93;;
45676;SDS011;31390;51.186;6.830;2023-02-28T02:45:01;8.23;;;7.17;;
45676;SDS011;31390;51.186;6.830;2023-02-28T02:47:30;12.47;;;8.70;;
45676;SDS011;31390;51.186;6.830;2023-02-28T02:49:59;11.90;;;9.03;;
45676;SDS011;31390;51.186;6.830;2023-02-28T02:52:37;14.60;;;9.57;;
45676;SDS011;31390;51.186;6.830;2023-02-28T02:55:06;13.37;;;9.27;;
45676;SDS011;31390;51.186;6.830;2023-02-28T02:57:38;12.90;;;8.73;;
45676;SDS011;31390;51.186;6.830;2023-02-28T03:00:06;11.57;;;8.07;;
45676;SDS011;31390;51.186;6.830;2023-02-28T03:02:35;14.40;;;9.40;;
45676;SDS011;31390;51.186;6.830;2023-02-28T03:05:04;8.97;;;8.07;;
45676;SDS011;31390;51.186;6.830;2023-02-28T03:07:32;11.50;;;9.13;;
45676;SDS011;31390;51.186;6.830;2023-02-28T03:09:58;10.03;;;8.30;;
45676;SDS011;31390;51.186;6.830;2023-02-28T03:12:32;14.27;;;9.90;;
45676;SDS011;31390;51.186;6.830;2023-02-28T03:20:00;11.30;;;8.37;;
45676;SDS011;31390;51.186;6.830;2023-02-28T03:22:52;10.90;;;8.63;;
45676;SDS011;31390;51.186;6.830;2023-02-28T03:25:23;11.23;;;8.83;;
45676;SDS011;31390;51.186;6.830;2023-02-28T03:27:59;11.77;;;8.40;;
45676;SDS011;31390;51.186;6.830;2023-02-28T03:30:41;12.03;;;9.07;;
45676;SDS011;31390;51.186;6.830;2023-02-28T03:33:13;13.20;;;9.30;;
45676;SDS011;31390;51.186;6.830;2023-02-28T03:35:42;11.83;;;9.07;;
45676;SDS011;31390;51.186;6.830;2023-02-28T03:38:22;9.07;;;8.27;;
45676;SDS011;31390;51.186;6.830;2023-02-28T03:40:51;10.57;;;8.23;;
45676;SDS011;31390;51.186;6.830;2023-02-28T03:43:28;13.80;;;9.27;;
45676;SDS011;31390;51.186;6.830;2023-02-28T03:45:55;8.33;;;6.63;;
45676;SDS011;31390;51.186;6.830;2023-02-28T03:48:23;9.63;;;7.93;;
45676;SDS011;31390;51.186;6.830;2023-02-28T03:50:53;12.47;;;8.07;;
45676;SDS011;31390;51.186;6.830;2023-02-28T03:53:25;8.30;;;7.40;;
45676;SDS011;31390;51.186;6.830;2023-02-28T03:55:57;11.97;;;8.50;;
45676;SDS011;31390;51.186;6.830;2023-02-28T04:01:07;9.10;;;7.30;;
45676;SDS011;31390;51.186;6.830;2023-02-28T04:03:38;10.70;;;7.23;;
45676;SDS011;31390;51.186;6.830;2023-02-28T04:06:13;9.00;;;7.50;;
45676;SDS011;31390;51.186;6.830;2023-02-28T04:08:41;10.13;;;7.37;;
45676;SDS011;31390;51.186;6.830;2023-02-28T04:11:12;11.10;;;7.43;;
45676;SDS011;31390;51.186;6.830;2023-02-28T04:13:38;7.53;;;6.70;;
45676;SDS011;31390;51.186;6.830;2023-02-28T04:16:08;7.27;;;6.57;;
45676;SDS011;31390;51.186;6.830;2023-02-28T04:18:49;10.23;;;7.73;;
45676;SDS011;31390;51.186;6.830;2023-02-28T04:21:16;8.80;;;7.47;;
45676;SDS011;31390;51.186;6.830;2023-02-28T04:23:46;9.57;;;7.80;;
45676;SDS011;31390;51.186;6.830;2023-02-28T04:26:13;9.10;;;7.10;;
45676;SDS011;31390;51.186;6.830;2023-02-28T04:28:39;7.27;;;5.60;;
45676;SDS011;31390;51.186;6.830;2023-02-28T04:31:06;10.13;;;5.67;;
45676;SDS011;31390;51.186;6.830;2023-02-28T04:33:32;8.07;;;6.60;;
45676;SDS011;31390;51.186;6.830;2023-02-28T04:36:00;10.43;;;7.27;;
45676;SDS011;31390;51.186;6.830;2023-02-28T04:38:27;9.80;;;7.03;;
45676;SDS011;31390;51.186;6.830;2023-02-28T04:40:53;9.27;;;6.83;;
45676;SDS011;31390;51.186;6.830;2023-02-28T04:43:20;10.17;;;7.10;;
45676;SDS011;31390;51.186;6.830;2023-02-28T04:45:46;8.03;;;7.00;;
45676;SDS011;31390;51.186;6.830;2023-02-28T04:48:13;12.60;;;6.83;;
45676;SDS011;31390;51.186;6.830;2023-02-28T04:50:39;11.37;;;7.43;;
45676;SDS011;31390;51.186;6.830;2023-02-28T04:53:05;9.20;;;6.90;;
45676;SDS011;31390;51.186;6.830;2023-02-28T04:55:32;10.37;;;7.70;;
45676;SDS011;31390;51.186;6.830;2023-02-28T04:57:58;9.67;;;7.00;;
45676;SDS011;31390;51.186;6.830;2023-02-28T05:00:25;9.20;;;6.70;;
45676;SDS011;31390;51.186;6.830;2023-02-28T05:02:51;12.83;;;7.70;;
45676;SDS011;31390;51.186;6.830;2023-02-28T05:05:18;13.27;;;7.27;;
45676;SDS011;31390;51.186;6.830;2023-02-28T05:07:44;10.83;;;7.57;;
45676;SDS011;31390;51.186;6.830;2023-02-28T05:10:11;10.33;;;7.70;;
45676;SDS011;31390;51.186;6.830;2023-02-28T05:12:37;10.37;;;7.17;;
45676;SDS011;31390;51.186;6.830;2023-02-28T05:15:05;9.50;;;7.80;;
45676;SDS011;31390;51.186;6.830;2023-02-28T05:17:31;12.80;;;7.43;;
45676;SDS011;31390;51.186;6.830;2023-02-28T05:19:58;11.03;;;7.87;;
45676;SDS011;31390;51.186;6.830;2023-02-28T05:22:40;8.60;;;7.37;;
45676;SDS011;31390;51.186;6.830;2023-02-28T05:25:08;11.17;;;8.43;;
45676;SDS011;31390;51.186;6.830;2023-02-28T05:27:35;12.10;;;7.43;;
45676;SDS011;31390;51.186;6.830;2023-02-28T05:30:02;10.93;;;7.47;;
45676;SDS011;31390;51.186;6.830;2023-02-28T05:32:30;10.87;;;7.40;;
45676;SDS011;31390;51.186;6.830;2023-02-28T05:34:57;7.13;;;5.93;;
45676;SDS011;31390;51.186;6.830;2023-02-28T05:37:23;12.83;;;7.47;;
45676;SDS011;31390;51.186;6.830;2023-02-28T05:39:49;11.80;;;7.20;;
45676;SDS011;31390;51.186;6.830;2023-02-28T05:42:16;12.10;;;7.20;;
45676;SDS011;31390;51.186;6.830;2023-02-28T05:44:42;9.10;;;6.73;;
45676;SDS011;31390;51.186;6.830;2023-02-28T05:47:09;12.50;;;6.63;;
45676;SDS011;31390;51.186;6.830;2023-02-28T05:49:35;11.73;;;6.37;;
45676;SDS011;31390;51.186;6.830;2023-02-28T05:52:02;9.83;;;6.57;;
45676;SDS011;31390;51.186;6.830;2023-02-28T05:54:28;10.50;;;6.70;;
45676;SDS011;31390;51.186;6.830;2023-02-28T05:56:55;6.63;;;5.60;;
45676;SDS011;31390;51.186;6.830;2023-02-28T05:59:21;9.57;;;6.90;;
45676;SDS011;31390;51.186;6.830;2023-02-28T06:01:47;5.87;;;5.33;;
45676;SDS011;31390;51.186;6.830;2023-02-28T06:04:15;7.47;;;6.03;;
45676;SDS011;31390;51.186;6.830;2023-02-28T06:06:57;10.60;;;6.63;;
45676;SDS011;31390;51.186;6.830;2023-02-28T06:09:24;9.17;;;6.53;;
45676;SDS011;31390;51.186;6.830;2023-02-28T06:11:51;8.23;;;5.70;;
45676;SDS011;31390;51.186;6.830;2023-02-28T06:14:18;9.37;;;6.30;;
45676;SDS011;31390;51.186;6.830;2023-02-28T06:16:45;9.70;;;5.97;;
45676;SDS011;31390;51.186;6.830;2023-02-28T06:19:11;5.83;;;5.23;;
45676;SDS011;31390;51.186;6.830;2023-02-28T06:21:38;8.10;;;5.27;;
45676;SDS011;31390;51.186;6.830;2023-02-28T06:24:04;8.03;;;5.47;;
45676;SDS011;31390;51.186;6.830;2023-02-28T06:26:31;7.60;;;5.63;;
45676;SDS011;31390;51.186;6.830;2023-02-28T06:28:57;8.97;;;5.27;;
45676;SDS011;31390;51.186;6.830;2023-02-28T06:31:24;8.53;;;5.43;;
45676;SDS011;31390;51.186;6.830;2023-02-28T06:33:52;8.27;;;5.10;;
45676;SDS011;31390;51.186;6.830;2023-02-28T06:36:19;10.00;;;4.57;;
45676;SDS011;31390;51.186;6.830;2023-02-28T06:38:46;7.90;;;4.50;;
45676;SDS011;31390;51.186;6.830;2023-02-28T06:41:17;4.83;;;4.23;;
45676;SDS011;31390;51.186;6.830;2023-02-28T06:43:43;9.23;;;4.90;;
45676;SDS011;31390;51.186;6.830;2023-02-28T06:46:11;6.97;;;4.73;;
45676;SDS011;31390;51.186;6.830;2023-02-28T06:48:37;9.83;;;4.87;;
45676;SDS011;31390;51.186;6.830;2023-02-28T06:51:08;8.30;;;4.27;;
45676;SDS011;31390;51.186;6.830;2023-02-28T06:53:35;6.63;;;5.03;;
45676;SDS011;31390;51.186;6.830;2023-02-28T06:56:05;6.23;;;3.60;;
45676;SDS011;31390;51.186;6.830;2023-02-28T06:58:32;8.67;;;4.53;;
45676;SDS011;31390;51.186;6.830;2023-02-28T07:00:59;6.77;;;3.90;;
45676;SDS011;31390;51.186;6.830;2023-02-28T07:03:26;5.33;;;4.27;;
45676;SDS011;31390;51.186;6.830;2023-02-28T07:05:52;5.27;;;3.97;;
45676;SDS011;31390;51.186;6.830;2023-02-28T07:08:19;6.00;;;3.93;;
45676;SDS011;31390;51.186;6.830;2023-02-28T07:10:45;6.67;;;4.47;;
45676;SDS011;31390;51.186;6.830;2023-02-28T07:13:12;6.03;;;3.90;;
45676;SDS011;31390;51.186;6.830;2023-02-28T07:15:38;4.80;;;3.93;;
45676;SDS011;31390;51.186;6.830;2023-02-28T07:18:08;6.63;;;4.00;;
45676;SDS011;31390;51.186;6.830;2023-02-28T07:20:35;4.50;;;3.23;;
45676;SDS011;31390;51.186;6.830;2023-02-28T07:23:01;6.33;;;4.03;;
45676;SDS011;31390;51.186;6.830;2023-02-28T07:25:28;8.70;;;4.27;;
45676;SDS011;31390;51.186;6.830;2023-02-28T07:27:55;6.43;;;4.10;;
45676;SDS011;31390;51.186;6.830;2023-02-28T07:30:22;6.10;;;4.30;;
45676;SDS011;31390;51.186;6.830;2023-02-28T07:32:48;3.97;;;3.20;;
45676;SDS011;31390;51.186;6.830;2023-02-28T07:35:15;6.43;;;3.73;;
45676;SDS011;31390;51.186;6.830;2023-02-28T07:37:42;8.27;;;3.30;;
45676;SDS011;31390;51.186;6.830;2023-02-28T07:40:09;4.90;;;3.77;;
45676;SDS011;31390;51.186;6.830;2023-02-28T07:42:38;4.70;;;3.70;;
45676;SDS011;31390;51.186;6.830;2023-02-28T07:45:04;6.10;;;3.57;;
45676;SDS011;31390;51.186;6.830;2023-02-28T07:47:31;4.70;;;3.90;;
45676;SDS011;31390;51.186;6.830;2023-02-28T07:49:58;5.03;;;3.80;;
45676;SDS011;31390;51.186;6.830;2023-02-28T07:52:24;3.90;;;3.03;;
45676;SDS011;31390;51.186;6.830;2023-02-28T07:54:51;4.43;;;2.90;;
45676;SDS011;31390;51.186;6.830;2023-02-28T07:57:17;4.00;;;3.40;;
45676;SDS011;31390;51.186;6.830;2023-02-28T07:59:44;3.73;;;2.90;;
45676;SDS011;31390;51.186;6.830;2023-02-28T08:02:15;3.60;;;2.83;;
45676;SDS011;31390;51.186;6.830;2023-02-28T08:04:42;5.03;;;3.17;;
45676;SDS011;31390;51.186;6.830;2023-02-28T08:07:08;2.60;;;2.40;;
45676;SDS011;31390;51.186;6.830;2023-02-28T08:09:39;2.97;;;2.37;;
45676;SDS011;31390;51.186;6.830;2023-02-28T08:12:06;2.67;;;2.40;;
45676;SDS011;31390;51.186;6.830;2023-02-28T08:14:33;3.53;;;2.60;;
45676;SDS011;31390;51.186;6.830;2023-02-28T08:17:00;2.93;;;2.60;;
45676;SDS011;31390;51.186;6.830;2023-02-28T08:19:27;5.43;;;2.77;;
45676;SDS011;31390;51.186;6.830;2023-02-28T08:21:53;2.93;;;2.50;;
45676;SDS011;31390;51.186;6.830;2023-02-28T08:24:20;5.67;;;2.67;;
45676;SDS011;31390;51.186;6.830;2023-02-28T08:26:46;3.83;;;3.20;;
45676;SDS011;31390;51.186;6.830;2023-02-28T08:29:13;3.23;;;2.53;;
45676;SDS011;31390;51.186;6.830;2023-02-28T08:31:39;3.20;;;2.50;;
45676;SDS011;31390;51.186;6.830;2023-02-28T08:34:07;3.17;;;2.67;;
45676;SDS011;31390;51.186;6.830;2023-02-28T08:36:34;5.13;;;2.10;;
45676;SDS011;31390;51.186;6.830;2023-02-28T08:39:01;2.30;;;2.10;;
45676;SDS011;31390;51.186;6.830;2023-02-28T08:41:29;2.40;;;2.20;;
45676;SDS011;31390;51.186;6.830;2023-02-28T08:43:56;4.07;;;2.00;;
45676;SDS011;31390;51.186;6.830;2023-02-28T08:46:23;3.63;;;2.10;;
45676;SDS011;31390;51.186;6.830;2023-02-28T08:48:53;2.20;;;2.00;;
45676;SDS011;31390;51.186;6.830;2023-02-28T08:51:20;3.20;;;1.90;;
45676;SDS011;31390;51.186;6.830;2023-02-28T08:53:54;2.43;;;2.23;;
45676;SDS011;31390;51.186;6.830;2023-02-28T08:56:21;1.93;;;1.83;;
45676;SDS011;31390;51.186;6.830;2023-02-28T08:58:48;2.03;;;1.83;;
45676;SDS011;31390;51.186;6.830;2023-02-28T09:01:16;3.50;;;2.10;;
45676;SDS011;31390;51.186;6.830;2023-02-28T09:03:43;2.87;;;2.17;;
45676;SDS011;31390;51.186;6.830;2023-02-28T09:06:10;2.23;;;1.80;;
45676;SDS011;31390;51.186;6.830;2023-02-28T09:08:37;2.50;;;2.30;;
45676;SDS011;31390;51.186;6.830;2023-02-28T09:11:03;4.93;;;1.90;;
45676;SDS011;31390;51.186;6.830;2023-02-28T09:13:30;2.17;;;1.67;;
45676;SDS011;31390;51.186;6.830;2023-02-28T09:15:59;4.60;;;1.50;;
45676;SDS011;31390;51.186;6.830;2023-02-28T09:18:26;2.30;;;1.80;;
45676;SDS011;31390;51.186;6.830;2023-02-28T09:20:52;2.60;;;1.60;;
45676;SDS011;31390;51.186;6.830;2023-02-28T09:23:19;3.37;;;1.57;;
45676;SDS011;31390;51.186;6.830;2023-02-28T09:25:49;2.07;;;1.60;;
45676;SDS011;31390;51.186;6.830;2023-02-28T09:28:16;3.37;;;1.83;;
45676;SDS011;31390;51.186;6.830;2023-02-28T09:30:44;6.43;;;2.07;;
45676;SDS011;31390;51.186;6.830;2023-02-28T09:33:10;3.27;;;1.43;;
45676;SDS011;31390;51.186;6.830;2023-02-28T09:35:37;2.07;;;1.53;;
45676;SDS011;31390;51.186;6.830;2023-02-28T09:38:04;2.10;;;1.33;;
45676;SDS011;31390;51.186;6.830;2023-02-28T09:40:31;1.50;;;1.40;;
45676;SDS011;31390;51.186;6.830;2023-02-28T09:42:57;1.93;;;1.77;;
45676;SDS011;31390;51.186;6.830;2023-02-28T09:45:29;2.77;;;1.73;;
45676;SDS011;31390;51.186;6.830;2023-02-28T09:47:59;1.97;;;1.80;;
45676;SDS011;31390;51.186;6.830;2023-02-28T09:50:32;2.13;;;1.87;;
45676;SDS011;31390;51.186;6.830;2023-02-28T09:53:02;1.63;;;1.53;;
45676;SDS011;31390;51.186;6.830;2023-02-28T09:55:31;1.63;;;1.50;;
45676;SDS011;31390;51.186;6.830;2023-02-28T09:58:27;1.47;;;1.33;;
45676;SDS011;31390;51.186;6.830;2023-02-28T10:00:56;3.73;;;1.70;;
45676;SDS011;31390;51.186;6.830;2023-02-28T10:06:08;1.87;;;1.40;;
45676;SDS011;31390;51.186;6.830;2023-02-28T10:08:37;2.23;;;1.60;;
45676;SDS011;31390;51.186;6.830;2023-02-28T10:11:09;2.27;;;1.60;;
45676;SDS011;31390;51.186;6.830;2023-02-28T10:13:50;1.43;;;1.30;;
45676;SDS011;31390;51.186;6.830;2023-02-28T10:18:57;1.77;;;1.50;;
45676;SDS011;31390;51.186;6.830;2023-02-28T10:21:28;2.57;;;1.50;;
45676;SDS011;31390;51.186;6.830;2023-02-28T10:23:59;1.40;;;1.30;;
45676;SDS011;31390;51.186;6.830;2023-02-28T10:26:27;1.60;;;1.43;;
45676;SDS011;31390;51.186;6.830;2023-02-28T10:28:55;3.90;;;1.70;;
45676;SDS011;31390;51.186;6.830;2023-02-28T10:31:22;2.00;;;1.27;;
45676;SDS011;31390;51.186;6.830;2023-02-28T10:33:51;2.07;;;1.70;;
45676;SDS011;31390;51.186;6.830;2023-02-28T10:36:19;1.40;;;1.30;;
45676;SDS011;31390;51.186;6.830;2023-02-28T10:38:46;1.87;;;1.73;;
45676;SDS011;31390;51.186;6.830;2023-02-28T10:41:15;2.30;;;1.90;;
45676;SDS011;31390;51.186;6.830;2023-02-28T10:43:45;2.17;;;1.33;;
45676;SDS011;31390;51.186;6.830;2023-02-28T10:46:18;1.93;;;1.37;;
45676;SDS011;31390;51.186;6.830;2023-02-28T10:49:00;2.57;;;1.50;;
45676;SDS011;31390;51.186;6.830;2023-02-28T10:51:27;2.17;;;1.50;;
45676;SDS011;31390;51.186;6.830;2023-02-28T10:54:00;2.23;;;1.60;;
45676;SDS011;31390;51.186;6.830;2023-02-28T10:56:28;1.87;;;1.53;;
45676;SDS011;31390;51.186;6.830;2023-02-28T10:58:56;1.50;;;1.40;;
45676;SDS011;31390;51.186;6.830;2023-02-28T11:01:44;3.30;;;1.40;;
45676;SDS011;31390;51.186;6.830;2023-02-28T11:06:43;2.20;;;1.70;;
45676;SDS011;31390;51.186;6.830;2023-02-28T11:09:27;1.83;;;1.67;;
45676;SDS011;31390;51.186;6.830;2023-02-28T11:11:55;2.58;;;1.52;;
45676;SDS011;31390;51.186;6.830;2023-02-28T11:14:23;2.05;;;1.85;;
45676;SDS011;31390;51.186;6.830;2023-02-28T11:16:51;1.67;;;1.57;;
45676;SDS011;31390;51.186;6.830;2023-02-28T11:19:38;1.75;;;1.65;;
45676;SDS011;31390;51.186;6.830;2023-02-28T11:22:05;1.83;;;1.60;;
45676;SDS011;31390;51.186;6.830;2023-02-28T11:24:43;1.98;;;1.77;;
45676;SDS011;31390;51.186;6.830;2023-02-28T11:29:52;2.42;;;1.90;;
45676;SDS011;31390;51.186;6.830;2023-02-28T11:32:20;2.75;;;1.70;;
45676;SDS011;31390;51.186;6.830;2023-02-28T11:34:59;2.15;;;1.70;;
45676;SDS011;31390;51.186;6.830;2023-02-28T11:37:26;1.92;;;1.75;;
45676;SDS011;31390;51.186;6.830;2023-02-28T11:39:53;3.03;;;2.00;;
45676;SDS011;31390;51.186;6.830;2023-02-28T11:42:39;4.70;;;4.30;;
45676;SDS011;31390;51.186;6.830;2023-02-28T11:48:09;3.20;;;2.75;;
45676;SDS011;31390;51.186;6.830;2023-02-28T11:55:42;2.45;;;2.25;;
45676;SDS011;31390;51.186;6.830;2023-02-28T12:06:50;2.13;;;1.70;;
45676;SDS011;31390;51.186;6.830;2023-02-28T12:11:53;2.43;;;1.87;;
45676;SDS011;31390;51.186;6.830;2023-02-28T12:17:07;2.03;;;1.80;;
45676;SDS011;31390;51.186;6.830;2023-02-28T12:27:26;1.70;;;1.60;;
45676;SDS011;31390;51.186;6.830;2023-02-28T12:30:02;2.03;;;1.83;;
45676;SDS011;31390;51.186;6.830;2023-02-28T12:32:40;2.67;;;2.10;;
45676;SDS011;31390;51.186;6.830;2023-02-28T12:35:19;2.67;;;2.27;;
45676;SDS011;31390;51.186;6.830;2023-02-28T12:40:56;2.20;;;2.00;;
45676;SDS011;31390;51.186;6.830;2023-02-28T12:43:26;2.37;;;1.90;;
45676;SDS011;31390;51.186;6.830;2023-02-28T12:46:14;5.60;;;2.13;;
45676;SDS011;31390;51.186;6.830;2023-02-28T12:51:17;3.43;;;2.20;;
45676;SDS011;31390;51.186;6.830;2023-02-28T12:53:49;1.98;;;1.80;;
45676;SDS011;31390;51.186;6.830;2023-02-28T12:58:53;2.77;;;1.77;;
45676;SDS011;31390;51.186;6.830;2023-02-28T13:06:54;2.75;;;1.90;;
45676;SDS011;31390;51.186;6.830;2023-02-28T13:09:25;3.10;;;1.95;;
45676;SDS011;31390;51.186;6.830;2023-02-28T13:11:53;3.42;;;1.90;;
45676;SDS011;31390;51.186;6.830;2023-02-28T13:16:58;2.38;;;2.05;;
45676;SDS011;31390;51.186;6.830;2023-02-28T13:19:27;3.13;;;2.13;;
45676;SDS011;31390;51.186;6.830;2023-02-28T13:21:55;2.43;;;2.23;;
45676;SDS011;31390;51.186;6.830;2023-02-28T13:24:42;3.00;;;2.20;;
45676;SDS011;31390;51.186;6.830;2023-02-28T13:27:11;3.57;;;2.20;;
45676;SDS011;31390;51.186;6.830;2023-02-28T13:29:38;2.03;;;1.80;;
45676;SDS011;31390;51.186;6.830;2023-02-28T13:34:41;3.45;;;2.30;;
45676;SDS011;31390;51.186;6.830;2023-02-28T13:47:36;3.03;;;2.13;;
45676;SDS011;31390;51.186;6.830;2023-02-28T13:55:27;3.80;;;2.30;;
45676;SDS011;31390;51.186;6.830;2023-02-28T14:06:07;3.95;;;2.20;;
45676;SDS011;31390;51.186;6.830;2023-02-28T14:08:34;4.15;;;2.63;;
45676;SDS011;31390;51.186;6.830;2023-02-28T14:11:05;3.65;;;2.40;;
45676;SDS011;31390;51.186;6.830;2023-02-28T14:16:04;2.55;;;2.35;;
45676;SDS011;31390;51.186;6.830;2023-02-28T14:18:32;3.60;;;2.43;;
45676;SDS011;31390;51.186;6.830;2023-02-28T14:26:03;4.10;;;2.10;;
45676;SDS011;31390;51.186;6.830;2023-02-28T14:31:13;5.32;;;2.42;;
45676;SDS011;31390;51.186;6.830;2023-02-28T14:36:26;3.10;;;2.30;;
45676;SDS011;31390;51.186;6.830;2023-02-28T14:38:58;3.40;;;2.63;;
45676;SDS011;31390;51.186;6.830;2023-02-28T14:41:36;4.07;;;2.60;;
45676;SDS011;31390;51.186;6.830;2023-02-28T14:44:21;3.80;;;2.93;;
45676;SDS011;31390;51.186;6.830;2023-02-28T14:46:50;2.55;;;2.15;;
45676;SDS011;31390;51.186;6.830;2023-02-28T14:51:44;3.50;;;2.33;;
45676;SDS011;31390;51.186;6.830;2023-02-28T14:54:14;3.20;;;2.63;;
45676;SDS011;31390;51.186;6.830;2023-02-28T14:56:41;3.30;;;2.30;;
45676;SDS011;31390;51.186;6.830;2023-02-28T15:02:23;3.13;;;2.60;;
45676;SDS011;31390;51.186;6.830;2023-02-28T15:04:52;3.23;;;2.10;;
45676;SDS011;31390;51.186;6.830;2023-02-28T15:07:18;2.63;;;2.40;;
45676;SDS011;31390;51.186;6.830;2023-02-28T15:09:45;2.50;;;2.30;;
45676;SDS011;31390;51.186;6.830;2023-02-28T15:12:14;4.53;;;2.33;;
45676;SDS011;31390;51.186;6.830;2023-02-28T15:14:42;3.57;;;2.60;;
45676;SDS011;31390;51.186;6.830;2023-02-28T15:17:22;7.45;;;2.67;;
45676;SDS011;31390;51.186;6.830;2023-02-28T15:19:51;4.97;;;2.80;;
45676;SDS011;31390;51.186;6.830;2023-02-28T15:22:19;3.22;;;2.33;;
45676;SDS011;31390;51.186;6.830;2023-02-28T15:24:49;4.53;;;2.30;;
45676;SDS011;31390;51.186;6.830;2023-02-28T15:27:22;2.83;;;2.22;;
45676;SDS011;31390;51.186;6.830;2023-02-28T15:29:54;2.77;;;2.43;;
45676;SDS011;31390;51.186;6.830;2023-02-28T15:32:29;2.67;;;2.47;;
45676;SDS011;31390;51.186;6.830;2023-02-28T15:34:57;5.73;;;2.33;;
45676;SDS011;31390;51.186;6.830;2023-02-28T15:39:57;3.27;;;2.40;;
45676;SDS011;31390;51.186;6.830;2023-02-28T15:42:28;2.50;;;2.30;;
45676;SDS011;31390;51.186;6.830;2023-02-28T15:44:54;3.23;;;2.87;;
45676;SDS011;31390;51.186;6.830;2023-02-28T15:47:22;3.43;;;2.53;;
45676;SDS011;31390;51.186;6.830;2023-02-28T15:52:16;5.73;;;2.60;;
45676;SDS011;31390;51.186;6.830;2023-02-28T15:54:43;3.27;;;2.40;;
45676;SDS011;31390;51.186;6.830;2023-02-28T15:57:13;3.30;;;2.50;;
45676;SDS011;31390;51.186;6.830;2023-02-28T15:59:42;5.47;;;2.97;;
45676;SDS011;31390;51.186;6.830;2023-02-28T16:02:22;4.50;;;2.53;;
45676;SDS011;31390;51.186;6.830;2023-02-28T16:05:00;2.50;;;2.30;;
45676;SDS011;31390;51.186;6.830;2023-02-28T16:07:27;2.97;;;2.50;;
45676;SDS011;31390;51.186;6.830;2023-02-28T16:09:54;4.60;;;2.40;;
45676;SDS011;31390;51.186;6.830;2023-02-28T16:12:33;3.83;;;3.03;;
45676;SDS011;31390;51.186;6.830;2023-02-28T16:15:00;3.17;;;2.77;;
45676;SDS011;31390;51.186;6.830;2023-02-28T16:17:30;6.97;;;3.20;;
45676;SDS011;31390;51.186;6.830;2023-02-28T16:19:57;4.73;;;3.20;;
45676;SDS011;31390;51.186;6.830;2023-02-28T16:22:24;3.47;;;3.17;;
45676;SDS011;31390;51.186;6.830;2023-02-28T16:24:51;4.80;;;2.90;;
45676;SDS011;31390;51.186;6.830;2023-02-28T16:27:26;4.70;;;3.13;;
45676;SDS011;31390;51.186;6.830;2023-02-28T16:29:54;3.90;;;2.77;;
45676;SDS011;31390;51.186;6.830;2023-02-28T16:32:20;2.80;;;2.47;;
45676;SDS011;31390;51.186;6.830;2023-02-28T16:34:47;2.73;;;2.50;;
45676;SDS011;31390;51.186;6.830;2023-02-28T16:37:15;4.70;;;2.97;;
45676;SDS011;31390;51.186;6.830;2023-02-28T16:39:42;3.77;;;3.13;;
45676;SDS011;31390;51.186;6.830;2023-02-28T16:42:16;3.50;;;3.20;;
45676;SDS011;31390;51.186;6.830;2023-02-28T16:44:45;4.37;;;3.00;;
45676;SDS011;31390;51.186;6.830;2023-02-28T16:47:12;4.10;;;3.37;;
45676;SDS011;31390;51.186;6.830;2023-02-28T16:49:39;4.53;;;3.87;;
45676;SDS011;31390;51.186;6.830;2023-02-28T16:52:08;4.33;;;3.20;;
45676;SDS011;31390;51.186;6.830;2023-02-28T16:54:35;4.40;;;3.60;;
45676;SDS011;31390;51.186;6.830;2023-02-28T16:57:02;3.77;;;3.47;;
45676;SDS011;31390;51.186;6.830;2023-02-28T16:59:29;3.50;;;3.20;;
45676;SDS011;31390;51.186;6.830;2023-02-28T17:01:55;4.70;;;3.37;;
45676;SDS011;31390;51.186;6.830;2023-02-28T17:04:25;6.27;;;3.30;;
45676;SDS011;31390;51.186;6.830;2023-02-28T17:06:52;3.80;;;3.50;;
45676;SDS011;31390;51.186;6.830;2023-02-28T17:09:20;4.73;;;3.37;;